createdAt,value
2019-05-09T07:01:28.474Z,57.2
2019-05-09T07:18:15.175Z,57.6
2019-05-09T07:35:03.991Z,57.6
2019-05-09T07:51:52.282Z,58.0
2019-05-09T08:08:40.667Z,58.4
2019-05-09T08:25:29.086Z,58.8
2019-05-09T08:42:20.089Z,59.2
2019-05-09T08:59:08.265Z,59.6
2019-05-09T09:16:11.744Z,59.6
2019-05-09T09:32:44.651Z,60.4
2019-05-09T09:49:33.730Z,60.8
2019-05-09T10:06:22.868Z,61.2
2019-05-09T10:23:18.164Z,61.2
2019-05-09T10:40:01.846Z,61.6
2019-05-09T10:56:50.298Z,61.2
2019-05-09T11:13:39.702Z,61.2
2019-05-09T11:30:29.136Z,61.2
2019-05-09T11:47:32.054Z,60.8
2019-05-09T12:04:08.170Z,60.8
2019-05-09T12:20:57.726Z,60.8
2019-05-09T12:37:48.376Z,60.0
2019-05-09T12:54:38.628Z,58.8
2019-05-09T13:11:27.948Z,58.4
2019-05-09T13:28:17.497Z,58.8
2019-05-09T13:45:04.934Z,59.6
2019-05-09T14:01:54.657Z,59.6
2019-05-09T14:18:44.027Z,58.0
2019-05-09T14:35:35.263Z,56.8
2019-05-09T14:52:21.820Z,56.0
2019-05-09T15:09:10.401Z,55.6
2019-05-09T15:25:58.976Z,55.2
2019-05-09T15:42:48.122Z,56.4
2019-05-09T15:59:39.043Z,57.2
2019-05-09T16:16:25.329Z,57.2
2019-05-09T16:33:13.869Z,57.2
2019-05-09T16:50:02.865Z,56.0
2019-05-09T17:06:51.726Z,56.0
2019-05-09T17:23:40.729Z,56.0
2019-05-09T17:40:29.638Z,56.8
2019-05-09T17:57:18.921Z,55.6
2019-05-09T18:14:08.083Z,55.2
2019-05-09T18:30:55.705Z,55.2
2019-05-09T18:47:45.035Z,54.4
2019-05-09T19:04:33.245Z,54.4
2019-05-09T19:21:26.951Z,55.2
2019-05-09T19:38:10.166Z,54.4
2019-05-09T19:54:58.553Z,54.4
2019-05-09T20:11:46.840Z,54.8
2019-05-09T20:28:35.828Z,55.2
2019-05-09T20:45:21.868Z,54.8
2019-05-09T21:02:08.489Z,54.8
2019-05-09T21:18:55.498Z,55.2
2019-05-09T21:35:42.706Z,56.8
2019-05-09T21:52:30.221Z,57.2
2019-05-09T22:09:17.780Z,58.4
2019-05-09T22:26:05.410Z,59.2
2019-05-09T22:42:53.018Z,59.6
2019-05-09T22:59:40.423Z,60.0
2019-05-09T23:16:27.804Z,60.0
2019-05-09T23:33:15.177Z,60.0
2019-05-09T23:50:02.453Z,60.0
